sensor_id;sensor_type;location;lat;lon;timestamp;P1;durP1;ratioP1;P2;durP2;ratioP2
3081;SDS011;1551;51.046;7.010;2023-07-31T00:00:53;4.47;;;2.42;;
3081;SDS011;1551;51.046;7.010;2023-07-31T00:03:42;4.30;;;2.53;;
3081;SDS011;1551;51.046;7.010;2023-07-31T00:06:31;6.53;;;2.47;;
3081;SDS011;1551;51.046;7.010;2023-07-31T00:09:20;5.35;;;2.47;;
3081;SDS011;1551;51.046;7.010;2023-07-31T00:12:09;5.70;;;2.72;;
3081;SDS011;1551;51.046;7.010;2023-07-31T00:14:58;6.23;;;3.00;;
3081;SDS011;1551;51.046;7.010;2023-07-31T00:17:47;6.80;;;2.80;;
3081;SDS011;1551;51.046;7.010;2023-07-31T00:20:36;6.55;;;2.85;;
3081;SDS011;1551;51.046;7.010;2023-07-31T00:23:25;6.43;;;3.00;;
3081;SDS011;1551;51.046;7.010;2023-07-31T00:26:13;6.07;;;2.70;;
3081;SDS011;1551;51.046;7.010;2023-07-31T00:29:02;8.40;;;3.10;;
3081;SDS011;1551;51.046;7.010;2023-07-31T00:31:53;6.18;;;3.22;;
3081;SDS011;1551;51.046;7.010;2023-07-31T00:34:42;5.88;;;3.10;;
3081;SDS011;1551;51.046;7.010;2023-07-31T00:37:31;5.70;;;3.40;;
3081;SDS011;1551;51.046;7.010;2023-07-31T00:40:19;4.85;;;2.40;;
3081;SDS011;1551;51.046;7.010;2023-07-31T00:43:08;7.40;;;2.60;;
3081;SDS011;1551;51.046;7.010;2023-07-31T00:45:57;6.72;;;2.78;;
3081;SDS011;1551;51.046;7.010;2023-07-31T00:48:48;5.50;;;2.83;;
3081;SDS011;1551;51.046;7.010;2023-07-31T00:51:37;5.75;;;2.58;;
3081;SDS011;1551;51.046;7.010;2023-07-31T00:54:26;5.60;;;2.40;;
3081;SDS011;1551;51.046;7.010;2023-07-31T00:57:15;4.80;;;2.28;;
3081;SDS011;1551;51.046;7.010;2023-07-31T01:00:04;6.45;;;2.70;;
3081;SDS011;1551;51.046;7.010;2023-07-31T01:02:53;5.13;;;2.65;;
3081;SDS011;1551;51.046;7.010;2023-07-31T01:12:34;5.15;;;2.72;;
3081;SDS011;1551;51.046;7.010;2023-07-31T01:15:26;7.40;;;2.50;;
3081;SDS011;1551;51.046;7.010;2023-07-31T01:18:15;5.40;;;2.22;;
3081;SDS011;1551;51.046;7.010;2023-07-31T01:21:29;7.80;;;3.03;;
3081;SDS011;1551;51.046;7.010;2023-07-31T01:24:41;5.20;;;2.30;;
3081;SDS011;1551;51.046;7.010;2023-07-31T01:27:45;5.18;;;2.22;;
3081;SDS011;1551;51.046;7.010;2023-07-31T01:30:54;6.47;;;2.88;;
3081;SDS011;1551;51.046;7.010;2023-07-31T01:33:47;7.15;;;2.70;;
3081;SDS011;1551;51.046;7.010;2023-07-31T01:36:38;5.90;;;2.50;;
3081;SDS011;1551;51.046;7.010;2023-07-31T01:39:27;6.93;;;2.67;;
3081;SDS011;1551;51.046;7.010;2023-07-31T01:42:16;5.85;;;2.65;;
3081;SDS011;1551;51.046;7.010;2023-07-31T01:45:06;3.47;;;2.23;;
3081;SDS011;1551;51.046;7.010;2023-07-31T01:47:55;6.88;;;2.75;;
3081;SDS011;1551;51.046;7.010;2023-07-31T01:50:44;5.10;;;2.60;;
3081;SDS011;1551;51.046;7.010;2023-07-31T01:53:33;5.05;;;2.85;;
3081;SDS011;1551;51.046;7.010;2023-07-31T01:56:22;5.75;;;2.60;;
3081;SDS011;1551;51.046;7.010;2023-07-31T01:59:11;7.75;;;3.00;;
3081;SDS011;1551;51.046;7.010;2023-07-31T02:02:00;6.10;;;2.60;;
3081;SDS011;1551;51.046;7.010;2023-07-31T02:04:49;5.63;;;2.70;;
3081;SDS011;1551;51.046;7.010;2023-07-31T02:07:38;6.10;;;2.65;;
3081;SDS011;1551;51.046;7.010;2023-07-31T02:10:26;4.30;;;2.35;;
3081;SDS011;1551;51.046;7.010;2023-07-31T02:13:16;5.32;;;2.50;;
3081;SDS011;1551;51.046;7.010;2023-07-31T02:16:05;4.35;;;2.60;;
3081;SDS011;1551;51.046;7.010;2023-07-31T02:18:54;6.05;;;2.90;;
3081;SDS011;1551;51.046;7.010;2023-07-31T02:21:42;6.63;;;3.00;;
3081;SDS011;1551;51.046;7.010;2023-07-31T02:24:31;5.00;;;2.60;;
3081;SDS011;1551;51.046;7.010;2023-07-31T02:27:20;5.90;;;2.60;;
3081;SDS011;1551;51.046;7.010;2023-07-31T02:30:12;5.40;;;2.60;;
3081;SDS011;1551;51.046;7.010;2023-07-31T02:33:01;6.00;;;2.20;;
3081;SDS011;1551;51.046;7.010;2023-07-31T02:35:51;6.32;;;2.50;;
3081;SDS011;1551;51.046;7.010;2023-07-31T02:38:40;7.57;;;2.75;;
3081;SDS011;1551;51.046;7.010;2023-07-31T02:41:29;6.50;;;2.80;;
3081;SDS011;1551;51.046;7.010;2023-07-31T02:44:18;4.43;;;2.30;;
3081;SDS011;1551;51.046;7.010;2023-07-31T02:47:07;4.82;;;2.42;;
3081;SDS011;1551;51.046;7.010;2023-07-31T02:49:57;5.32;;;2.80;;
3081;SDS011;1551;51.046;7.010;2023-07-31T02:52:46;5.10;;;2.37;;
3081;SDS011;1551;51.046;7.010;2023-07-31T02:55:35;4.73;;;2.70;;
3081;SDS011;1551;51.046;7.010;2023-07-31T02:58:25;7.60;;;2.78;;
3081;SDS011;1551;51.046;7.010;2023-07-31T03:01:13;5.90;;;2.80;;
3081;SDS011;1551;51.046;7.010;2023-07-31T03:04:02;5.90;;;2.40;;
3081;SDS011;1551;51.046;7.010;2023-07-31T03:06:51;5.93;;;2.90;;
3081;SDS011;1551;51.046;7.010;2023-07-31T03:09:42;6.70;;;2.60;;
3081;SDS011;1551;51.046;7.010;2023-07-31T03:12:30;4.68;;;2.50;;
3081;SDS011;1551;51.046;7.010;2023-07-31T03:15:19;5.35;;;2.38;;
3081;SDS011;1551;51.046;7.010;2023-07-31T03:18:08;5.38;;;2.50;;
3081;SDS011;1551;51.046;7.010;2023-07-31T03:20:58;6.70;;;3.40;;
3081;SDS011;1551;51.046;7.010;2023-07-31T03:23:47;7.35;;;2.60;;
3081;SDS011;1551;51.046;7.010;2023-07-31T03:26:36;7.03;;;3.10;;
3081;SDS011;1551;51.046;7.010;2023-07-31T03:29:25;7.43;;;2.50;;
3081;SDS011;1551;51.046;7.010;2023-07-31T03:32:15;7.78;;;2.78;;
3081;SDS011;1551;51.046;7.010;2023-07-31T03:35:04;4.72;;;2.65;;
3081;SDS011;1551;51.046;7.010;2023-07-31T03:37:54;5.78;;;2.50;;
3081;SDS011;1551;51.046;7.010;2023-07-31T03:40:43;6.22;;;3.15;;
3081;SDS011;1551;51.046;7.010;2023-07-31T03:43:33;4.32;;;2.50;;
3081;SDS011;1551;51.046;7.010;2023-07-31T03:46:23;6.53;;;2.60;;
3081;SDS011;1551;51.046;7.010;2023-07-31T03:49:13;7.95;;;3.22;;
3081;SDS011;1551;51.046;7.010;2023-07-31T03:52:02;7.60;;;2.90;;
3081;SDS011;1551;51.046;7.010;2023-07-31T03:54:51;7.32;;;3.30;;
3081;SDS011;1551;51.046;7.010;2023-07-31T03:57:40;7.22;;;3.10;;
3081;SDS011;1551;51.046;7.010;2023-07-31T04:00:29;5.55;;;3.00;;
3081;SDS011;1551;51.046;7.010;2023-07-31T04:03:19;5.45;;;2.75;;
3081;SDS011;1551;51.046;7.010;2023-07-31T04:06:08;7.20;;;2.90;;
3081;SDS011;1551;51.046;7.010;2023-07-31T04:08:57;7.25;;;3.40;;
3081;SDS011;1551;51.046;7.010;2023-07-31T04:11:46;5.00;;;2.60;;
3081;SDS011;1551;51.046;7.010;2023-07-31T04:14:35;5.43;;;3.10;;
3081;SDS011;1551;51.046;7.010;2023-07-31T04:17:24;6.00;;;2.53;;
3081;SDS011;1551;51.046;7.010;2023-07-31T04:20:13;5.97;;;2.97;;
3081;SDS011;1551;51.046;7.010;2023-07-31T04:23:02;6.10;;;2.80;;
3081;SDS011;1551;51.046;7.010;2023-07-31T04:25:51;6.22;;;2.85;;
3081;SDS011;1551;51.046;7.010;2023-07-31T04:28:40;4.75;;;2.60;;
3081;SDS011;1551;51.046;7.010;2023-07-31T04:31:29;5.95;;;3.00;;
3081;SDS011;1551;51.046;7.010;2023-07-31T04:34:19;10.23;;;3.30;;
3081;SDS011;1551;51.046;7.010;2023-07-31T04:37:08;6.57;;;3.00;;
3081;SDS011;1551;51.046;7.010;2023-07-31T04:39:57;9.60;;;3.28;;
3081;SDS011;1551;51.046;7.010;2023-07-31T04:42:46;5.97;;;3.30;;
3081;SDS011;1551;51.046;7.010;2023-07-31T04:45:35;6.90;;;3.08;;
3081;SDS011;1551;51.046;7.010;2023-07-31T04:48:24;5.85;;;2.63;;
3081;SDS011;1551;51.046;7.010;2023-07-31T04:51:13;7.97;;;3.35;;
3081;SDS011;1551;51.046;7.010;2023-07-31T04:54:02;6.25;;;3.50;;
3081;SDS011;1551;51.046;7.010;2023-07-31T04:56:51;4.85;;;3.00;;
3081;SDS011;1551;51.046;7.010;2023-07-31T04:59:41;6.50;;;3.88;;
3081;SDS011;1551;51.046;7.010;2023-07-31T05:02:30;6.85;;;3.92;;
3081;SDS011;1551;51.046;7.010;2023-07-31T05:05:19;9.37;;;4.53;;
3081;SDS011;1551;51.046;7.010;2023-07-31T05:08:08;7.63;;;4.10;;
3081;SDS011;1551;51.046;7.010;2023-07-31T05:10:56;9.40;;;4.00;;
3081;SDS011;1551;51.046;7.010;2023-07-31T05:13:45;7.47;;;3.80;;
3081;SDS011;1551;51.046;7.010;2023-07-31T05:16:34;6.82;;;3.63;;
3081;SDS011;1551;51.046;7.010;2023-07-31T05:19:23;7.70;;;3.90;;
3081;SDS011;1551;51.046;7.010;2023-07-31T05:22:12;6.72;;;3.90;;
3081;SDS011;1551;51.046;7.010;2023-07-31T05:25:01;7.45;;;3.85;;
3081;SDS011;1551;51.046;7.010;2023-07-31T05:27:50;6.22;;;3.80;;
3081;SDS011;1551;51.046;7.010;2023-07-31T05:30:39;4.43;;;3.33;;
3081;SDS011;1551;51.046;7.010;2023-07-31T05:33:28;6.95;;;4.35;;
3081;SDS011;1551;51.046;7.010;2023-07-31T05:36:17;7.05;;;3.63;;
3081;SDS011;1551;51.046;7.010;2023-07-31T05:39:06;9.40;;;3.90;;
3081;SDS011;1551;51.046;7.010;2023-07-31T05:41:57;9.43;;;3.80;;
3081;SDS011;1551;51.046;7.010;2023-07-31T05:44:46;7.30;;;3.50;;
3081;SDS011;1551;51.046;7.010;2023-07-31T05:47:36;7.05;;;3.90;;
3081;SDS011;1551;51.046;7.010;2023-07-31T05:50:25;8.43;;;3.75;;
3081;SDS011;1551;51.046;7.010;2023-07-31T05:53:14;7.60;;;3.67;;
3081;SDS011;1551;51.046;7.010;2023-07-31T05:56:03;6.23;;;3.30;;
3081;SDS011;1551;51.046;7.010;2023-07-31T05:58:52;7.23;;;3.73;;
3081;SDS011;1551;51.046;7.010;2023-07-31T06:01:41;5.00;;;3.28;;
3081;SDS011;1551;51.046;7.010;2023-07-31T06:04:30;4.47;;;3.00;;
3081;SDS011;1551;51.046;7.010;2023-07-31T06:07:19;5.00;;;3.20;;
3081;SDS011;1551;51.046;7.010;2023-07-31T06:10:08;6.53;;;3.42;;
3081;SDS011;1551;51.046;7.010;2023-07-31T06:12:57;4.60;;;2.90;;
3081;SDS011;1551;51.046;7.010;2023-07-31T06:15:47;5.57;;;3.10;;
3081;SDS011;1551;51.046;7.010;2023-07-31T06:18:36;6.78;;;3.42;;
3081;SDS011;1551;51.046;7.010;2023-07-31T06:21:25;7.43;;;3.58;;
3081;SDS011;1551;51.046;7.010;2023-07-31T06:24:14;6.60;;;3.95;;
3081;SDS011;1551;51.046;7.010;2023-07-31T06:27:07;7.55;;;3.40;;
3081;SDS011;1551;51.046;7.010;2023-07-31T06:29:57;6.63;;;3.40;;
3081;SDS011;1551;51.046;7.010;2023-07-31T06:32:46;6.43;;;3.00;;
3081;SDS011;1551;51.046;7.010;2023-07-31T06:35:35;8.50;;;3.85;;
3081;SDS011;1551;51.046;7.010;2023-07-31T06:38:24;6.20;;;3.22;;
3081;SDS011;1551;51.046;7.010;2023-07-31T06:41:14;7.97;;;3.50;;
3081;SDS011;1551;51.046;7.010;2023-07-31T06:44:03;5.53;;;3.50;;
3081;SDS011;1551;51.046;7.010;2023-07-31T06:46:52;6.32;;;3.60;;
3081;SDS011;1551;51.046;7.010;2023-07-31T06:49:41;6.20;;;3.50;;
3081;SDS011;1551;51.046;7.010;2023-07-31T06:52:30;5.55;;;3.45;;
3081;SDS011;1551;51.046;7.010;2023-07-31T06:55:19;5.10;;;3.30;;
3081;SDS011;1551;51.046;7.010;2023-07-31T06:58:10;10.25;;;3.75;;
3081;SDS011;1551;51.046;7.010;2023-07-31T07:00:59;6.32;;;3.47;;
3081;SDS011;1551;51.046;7.010;2023-07-31T07:03:48;5.93;;;3.50;;
3081;SDS011;1551;51.046;7.010;2023-07-31T07:06:39;7.30;;;3.40;;
3081;SDS011;1551;51.046;7.010;2023-07-31T07:09:28;7.90;;;3.60;;
3081;SDS011;1551;51.046;7.010;2023-07-31T07:12:17;5.72;;;3.03;;
3081;SDS011;1551;51.046;7.010;2023-07-31T07:15:06;5.55;;;3.20;;
3081;SDS011;1551;51.046;7.010;2023-07-31T07:17:55;8.02;;;3.17;;
3081;SDS011;1551;51.046;7.010;2023-07-31T07:20:51;7.38;;;3.20;;
3081;SDS011;1551;51.046;7.010;2023-07-31T07:23:42;5.17;;;3.57;;
3081;SDS011;1551;51.046;7.010;2023-07-31T07:26:32;6.53;;;3.45;;
3081;SDS011;1551;51.046;7.010;2023-07-31T07:29:21;7.35;;;3.38;;
3081;SDS011;1551;51.046;7.010;2023-07-31T07:32:10;9.10;;;3.70;;
3081;SDS011;1551;51.046;7.010;2023-07-31T07:35:00;8.00;;;3.70;;
3081;SDS011;1551;51.046;7.010;2023-07-31T07:37:49;6.53;;;3.20;;
3081;SDS011;1551;51.046;7.010;2023-07-31T07:40:39;6.40;;;3.50;;
3081;SDS011;1551;51.046;7.010;2023-07-31T07:43:28;5.25;;;3.60;;
3081;SDS011;1551;51.046;7.010;2023-07-31T07:46:17;8.60;;;3.63;;
3081;SDS011;1551;51.046;7.010;2023-07-31T07:49:06;6.25;;;3.53;;
3081;SDS011;1551;51.046;7.010;2023-07-31T07:51:55;6.95;;;3.60;;
3081;SDS011;1551;51.046;7.010;2023-07-31T07:54:44;9.13;;;3.67;;
3081;SDS011;1551;51.046;7.010;2023-07-31T07:57:33;8.65;;;4.20;;
3081;SDS011;1551;51.046;7.010;2023-07-31T08:00:22;8.70;;;4.10;;
3081;SDS011;1551;51.046;7.010;2023-07-31T08:03:11;6.88;;;4.30;;
3081;SDS011;1551;51.046;7.010;2023-07-31T08:06:00;6.28;;;3.67;;
3081;SDS011;1551;51.046;7.010;2023-07-31T08:08:50;6.07;;;3.60;;
3081;SDS011;1551;51.046;7.010;2023-07-31T08:11:39;8.23;;;3.90;;
3081;SDS011;1551;51.046;7.010;2023-07-31T08:14:28;7.10;;;3.95;;
3081;SDS011;1551;51.046;7.010;2023-07-31T08:17:17;7.20;;;3.50;;
3081;SDS011;1551;51.046;7.010;2023-07-31T08:20:06;8.90;;;4.10;;
3081;SDS011;1551;51.046;7.010;2023-07-31T08:22:56;7.72;;;3.88;;
3081;SDS011;1551;51.046;7.010;2023-07-31T08:25:44;5.40;;;2.60;;
3081;SDS011;1551;51.046;7.010;2023-07-31T08:28:33;4.45;;;2.47;;
3081;SDS011;1551;51.046;7.010;2023-07-31T08:31:23;4.47;;;2.60;;
3081;SDS011;1551;51.046;7.010;2023-07-31T08:34:12;5.38;;;2.50;;
3081;SDS011;1551;51.046;7.010;2023-07-31T08:37:01;5.13;;;2.65;;
3081;SDS011;1551;51.046;7.010;2023-07-31T08:39:50;6.82;;;3.00;;
3081;SDS011;1551;51.046;7.010;2023-07-31T08:42:46;7.60;;;2.78;;
3081;SDS011;1551;51.046;7.010;2023-07-31T08:45:36;5.13;;;2.63;;
3081;SDS011;1551;51.046;7.010;2023-07-31T08:48:26;5.30;;;2.67;;
3081;SDS011;1551;51.046;7.010;2023-07-31T08:51:16;6.78;;;2.83;;
3081;SDS011;1551;51.046;7.010;2023-07-31T08:54:05;5.35;;;2.60;;
3081;SDS011;1551;51.046;7.010;2023-07-31T08:56:54;6.30;;;3.00;;
3081;SDS011;1551;51.046;7.010;2023-07-31T08:59:45;5.30;;;2.80;;
3081;SDS011;1551;51.046;7.010;2023-07-31T09:02:40;5.50;;;2.60;;
3081;SDS011;1551;51.046;7.010;2023-07-31T09:05:36;3.72;;;2.60;;
3081;SDS011;1551;51.046;7.010;2023-07-31T09:08:30;5.95;;;2.65;;
3081;SDS011;1551;51.046;7.010;2023-07-31T09:11:20;7.03;;;2.40;;
3081;SDS011;1551;51.046;7.010;2023-07-31T09:14:09;5.07;;;3.03;;
3081;SDS011;1551;51.046;7.010;2023-07-31T09:16:59;6.57;;;2.80;;
3081;SDS011;1551;51.046;7.010;2023-07-31T09:19:48;5.47;;;2.70;;
3081;SDS011;1551;51.046;7.010;2023-07-31T09:22:37;5.03;;;2.65;;
3081;SDS011;1551;51.046;7.010;2023-07-31T09:25:27;5.68;;;2.65;;
3081;SDS011;1551;51.046;7.010;2023-07-31T09:28:16;3.60;;;2.07;;
3081;SDS011;1551;51.046;7.010;2023-07-31T09:31:05;6.57;;;3.07;;
3081;SDS011;1551;51.046;7.010;2023-07-31T09:33:54;5.27;;;2.90;;
3081;SDS011;1551;51.046;7.010;2023-07-31T09:36:45;6.10;;;3.60;;
3081;SDS011;1551;51.046;7.010;2023-07-31T09:39:45;4.95;;;2.83;;
3081;SDS011;1551;51.046;7.010;2023-07-31T09:42:35;6.30;;;2.60;;
3081;SDS011;1551;51.046;7.010;2023-07-31T09:45:24;4.50;;;2.20;;
3081;SDS011;1551;51.046;7.010;2023-07-31T09:48:17;5.97;;;2.25;;
3081;SDS011;1551;51.046;7.010;2023-07-31T09:51:06;5.70;;;2.67;;
3081;SDS011;1551;51.046;7.010;2023-07-31T09:53:56;6.05;;;2.40;;
3081;SDS011;1551;51.046;7.010;2023-07-31T09:56:46;5.10;;;2.35;;
3081;SDS011;1551;51.046;7.010;2023-07-31T09:59:37;4.97;;;2.28;;
3081;SDS011;1551;51.046;7.010;2023-07-31T10:02:26;4.13;;;2.28;;
3081;SDS011;1551;51.046;7.010;2023-07-31T10:05:16;5.30;;;2.10;;
3081;SDS011;1551;51.046;7.010;2023-07-31T10:08:06;6.10;;;2.30;;
3081;SDS011;1551;51.046;7.010;2023-07-31T10:10:58;5.17;;;2.30;;
3081;SDS011;1551;51.046;7.010;2023-07-31T10:13:47;5.33;;;2.33;;
3081;SDS011;1551;51.046;7.010;2023-07-31T10:16:38;3.97;;;2.10;;
3081;SDS011;1551;51.046;7.010;2023-07-31T10:19:28;4.78;;;2.60;;
3081;SDS011;1551;51.046;7.010;2023-07-31T10:22:19;4.43;;;2.50;;
3081;SDS011;1551;51.046;7.010;2023-07-31T10:25:09;5.77;;;2.50;;
3081;SDS011;1551;51.046;7.010;2023-07-31T10:27:59;4.22;;;2.40;;
3081;SDS011;1551;51.046;7.010;2023-07-31T10:30:48;4.68;;;2.40;;
3081;SDS011;1551;51.046;7.010;2023-07-31T10:33:38;5.13;;;2.45;;
3081;SDS011;1551;51.046;7.010;2023-07-31T10:36:27;3.42;;;2.20;;
3081;SDS011;1551;51.046;7.010;2023-07-31T10:45:37;3.50;;;2.03;;
3081;SDS011;1551;51.046;7.010;2023-07-31T10:48:32;4.15;;;2.22;;
3081;SDS011;1551;51.046;7.010;2023-07-31T10:51:23;4.93;;;2.47;;
3081;SDS011;1551;51.046;7.010;2023-07-31T10:54:13;5.13;;;2.55;;
3081;SDS011;1551;51.046;7.010;2023-07-31T10:57:18;5.40;;;2.90;;
3081;SDS011;1551;51.046;7.010;2023-07-31T11:00:21;4.93;;;2.35;;
3081;SDS011;1551;51.046;7.010;2023-07-31T11:03:14;4.53;;;2.13;;
3081;SDS011;1551;51.046;7.010;2023-07-31T11:06:04;3.42;;;2.17;;
3081;SDS011;1551;51.046;7.010;2023-07-31T11:08:53;3.22;;;1.88;;
3081;SDS011;1551;51.046;7.010;2023-07-31T11:11:42;4.65;;;2.28;;
3081;SDS011;1551;51.046;7.010;2023-07-31T11:14:33;4.40;;;2.00;;
3081;SDS011;1551;51.046;7.010;2023-07-31T11:17:24;3.42;;;1.95;;
3081;SDS011;1551;51.046;7.010;2023-07-31T11:20:14;4.95;;;2.40;;
3081;SDS011;1551;51.046;7.010;2023-07-31T11:23:08;3.95;;;1.83;;
3081;SDS011;1551;51.046;7.010;2023-07-31T11:26:01;3.30;;;1.65;;
3081;SDS011;1551;51.046;7.010;2023-07-31T11:28:51;4.20;;;1.58;;
3081;SDS011;1551;51.046;7.010;2023-07-31T11:31:43;4.07;;;1.60;;
3081;SDS011;1551;51.046;7.010;2023-07-31T11:34:32;2.80;;;1.45;;
3081;SDS011;1551;51.046;7.010;2023-07-31T11:37:22;2.78;;;1.27;;
3081;SDS011;1551;51.046;7.010;2023-07-31T11:40:11;3.38;;;1.60;;
3081;SDS011;1551;51.046;7.010;2023-07-31T11:43:04;3.08;;;1.02;;
3081;SDS011;1551;51.046;7.010;2023-07-31T11:45:54;2.30;;;0.90;;
3081;SDS011;1551;51.046;7.010;2023-07-31T11:48:45;2.60;;;1.20;;
3081;SDS011;1551;51.046;7.010;2023-07-31T11:51:34;2.70;;;1.20;;
3081;SDS011;1551;51.046;7.010;2023-07-31T11:54:23;3.40;;;1.10;;
3081;SDS011;1551;51.046;7.010;2023-07-31T11:57:13;2.70;;;0.80;;
3081;SDS011;1551;51.046;7.010;2023-07-31T12:00:02;2.30;;;1.00;;
3081;SDS011;1551;51.046;7.010;2023-07-31T12:02:53;2.50;;;0.80;;
3081;SDS011;1551;51.046;7.010;2023-07-31T12:05:42;2.40;;;1.10;;
3081;SDS011;1551;51.046;7.010;2023-07-31T12:08:31;2.30;;;0.97;;
3081;SDS011;1551;51.046;7.010;2023-07-31T12:11:20;2.20;;;0.93;;
3081;SDS011;1551;51.046;7.010;2023-07-31T12:14:19;2.28;;;0.90;;
3081;SDS011;1551;51.046;7.010;2023-07-31T12:17:15;2.10;;;0.80;;
3081;SDS011;1551;51.046;7.010;2023-07-31T12:20:04;2.20;;;0.80;;
3081;SDS011;1551;51.046;7.010;2023-07-31T12:22:55;2.30;;;1.00;;
3081;SDS011;1551;51.046;7.010;2023-07-31T12:25:46;2.20;;;1.00;;
3081;SDS011;1551;51.046;7.010;2023-07-31T12:28:36;3.10;;;1.00;;
3081;SDS011;1551;51.046;7.010;2023-07-31T12:31:33;2.72;;;1.10;;
3081;SDS011;1551;51.046;7.010;2023-07-31T12:34:23;3.85;;;1.30;;
3081;SDS011;1551;51.046;7.010;2023-07-31T12:37:12;2.67;;;1.30;;
3081;SDS011;1551;51.046;7.010;2023-07-31T12:40:01;2.88;;;1.35;;
3081;SDS011;1551;51.046;7.010;2023-07-31T12:42:53;3.55;;;1.50;;
3081;SDS011;1551;51.046;7.010;2023-07-31T12:45:42;3.65;;;2.00;;
3081;SDS011;1551;51.046;7.010;2023-07-31T12:48:31;3.70;;;2.15;;
3081;SDS011;1551;51.046;7.010;2023-07-31T12:51:20;2.83;;;1.70;;
3081;SDS011;1551;51.046;7.010;2023-07-31T12:54:09;3.60;;;1.70;;
3081;SDS011;1551;51.046;7.010;2023-07-31T12:56:59;3.10;;;1.65;;
3081;SDS011;1551;51.046;7.010;2023-07-31T12:59:47;3.90;;;2.00;;
3081;SDS011;1551;51.046;7.010;2023-07-31T13:02:37;3.00;;;1.67;;
3081;SDS011;1551;51.046;7.010;2023-07-31T13:05:28;2.80;;;1.70;;
3081;SDS011;1551;51.046;7.010;2023-07-31T13:08:18;4.00;;;2.10;;
3081;SDS011;1551;51.046;7.010;2023-07-31T13:11:07;3.33;;;1.90;;
3081;SDS011;1551;51.046;7.010;2023-07-31T13:13:56;4.20;;;1.70;;
3081;SDS011;1551;51.046;7.010;2023-07-31T13:16:45;3.42;;;1.70;;
3081;SDS011;1551;51.046;7.010;2023-07-31T13:19:34;3.20;;;2.10;;
3081;SDS011;1551;51.046;7.010;2023-07-31T13:22:23;4.85;;;1.88;;
3081;SDS011;1551;51.046;7.010;2023-07-31T13:25:12;3.17;;;1.90;;
3081;SDS011;1551;51.046;7.010;2023-07-31T13:28:00;3.80;;;2.20;;
3081;SDS011;1551;51.046;7.010;2023-07-31T13:30:49;3.50;;;2.15;;
3081;SDS011;1551;51.046;7.010;2023-07-31T13:33:38;3.30;;;2.00;;
3081;SDS011;1551;51.046;7.010;2023-07-31T13:36:27;3.47;;;2.00;;
3081;SDS011;1551;51.046;7.010;2023-07-31T13:39:16;3.30;;;1.75;;
3081;SDS011;1551;51.046;7.010;2023-07-31T13:42:06;3.78;;;2.10;;
3081;SDS011;1551;51.046;7.010;2023-07-31T13:44:57;3.75;;;1.90;;
3081;SDS011;1551;51.046;7.010;2023-07-31T13:47:46;3.95;;;2.00;;
3081;SDS011;1551;51.046;7.010;2023-07-31T13:50:35;3.70;;;2.08;;
3081;SDS011;1551;51.046;7.010;2023-07-31T13:53:24;3.30;;;1.92;;
3081;SDS011;1551;51.046;7.010;2023-07-31T13:56:13;3.33;;;2.20;;
3081;SDS011;1551;51.046;7.010;2023-07-31T13:59:02;3.25;;;1.70;;
3081;SDS011;1551;51.046;7.010;2023-07-31T14:01:51;3.97;;;1.95;;
3081;SDS011;1551;51.046;7.010;2023-07-31T14:04:40;3.90;;;2.08;;
3081;SDS011;1551;51.046;7.010;2023-07-31T14:07:29;3.80;;;2.10;;
3081;SDS011;1551;51.046;7.010;2023-07-31T14:10:17;5.22;;;2.50;;
3081;SDS011;1551;51.046;7.010;2023-07-31T14:13:06;3.77;;;1.90;;
3081;SDS011;1551;51.046;7.010;2023-07-31T14:15:55;3.00;;;1.60;;
3081;SDS011;1551;51.046;7.010;2023-07-31T14:18:44;3.00;;;2.10;;
3081;SDS011;1551;51.046;7.010;2023-07-31T14:21:36;4.50;;;2.40;;
3081;SDS011;1551;51.046;7.010;2023-07-31T14:24:25;4.17;;;2.50;;
3081;SDS011;1551;51.046;7.010;2023-07-31T14:27:14;4.30;;;2.30;;
3081;SDS011;1551;51.046;7.010;2023-07-31T14:30:04;3.63;;;2.13;;
3081;SDS011;1551;51.046;7.010;2023-07-31T14:32:54;3.20;;;1.90;;
3081;SDS011;1551;51.046;7.010;2023-07-31T14:35:43;4.60;;;2.30;;
3081;SDS011;1551;51.046;7.010;2023-07-31T14:38:32;3.72;;;2.05;;
3081;SDS011;1551;51.046;7.010;2023-07-31T14:41:22;4.28;;;2.72;;
3081;SDS011;1551;51.046;7.010;2023-07-31T14:44:11;3.50;;;2.10;;
3081;SDS011;1551;51.046;7.010;2023-07-31T14:47:00;3.22;;;2.05;;
3081;SDS011;1551;51.046;7.010;2023-07-31T14:49:49;3.60;;;1.80;;
3081;SDS011;1551;51.046;7.010;2023-07-31T14:52:37;3.30;;;1.83;;
3081;SDS011;1551;51.046;7.010;2023-07-31T14:55:27;5.40;;;2.20;;
3081;SDS011;1551;51.046;7.010;2023-07-31T14:58:15;4.55;;;2.45;;
3081;SDS011;1551;51.046;7.010;2023-07-31T15:01:05;4.00;;;2.50;;
3081;SDS011;1551;51.046;7.010;2023-07-31T15:03:54;5.45;;;2.90;;
3081;SDS011;1551;51.046;7.010;2023-07-31T15:06:43;3.83;;;1.95;;
3081;SDS011;1551;51.046;7.010;2023-07-31T15:09:32;3.50;;;2.20;;
3081;SDS011;1551;51.046;7.010;2023-07-31T15:12:21;3.97;;;2.40;;
3081;SDS011;1551;51.046;7.010;2023-07-31T15:15:10;3.53;;;2.20;;
3081;SDS011;1551;51.046;7.010;2023-07-31T15:17:59;4.10;;;2.58;;
3081;SDS011;1551;51.046;7.010;2023-07-31T15:20:48;4.20;;;2.75;;
3081;SDS011;1551;51.046;7.010;2023-07-31T15:23:37;5.00;;;3.00;;
3081;SDS011;1551;51.046;7.010;2023-07-31T15:26:27;4.43;;;2.47;;
3081;SDS011;1551;51.046;7.010;2023-07-31T15:29:16;4.30;;;2.50;;
3081;SDS011;1551;51.046;7.010;2023-07-31T15:32:08;5.72;;;2.50;;
3081;SDS011;1551;51.046;7.010;2023-07-31T15:34:57;6.53;;;3.08;;
3081;SDS011;1551;51.046;7.010;2023-07-31T15:37:46;4.63;;;2.50;;
3081;SDS011;1551;51.046;7.010;2023-07-31T15:40:35;5.20;;;2.83;;
3081;SDS011;1551;51.046;7.010;2023-07-31T15:43:23;5.28;;;2.90;;
3081;SDS011;1551;51.046;7.010;2023-07-31T15:46:13;5.00;;;2.67;;
3081;SDS011;1551;51.046;7.010;2023-07-31T15:49:02;4.53;;;2.60;;
3081;SDS011;1551;51.046;7.010;2023-07-31T15:51:51;5.40;;;2.90;;
3081;SDS011;1551;51.046;7.010;2023-07-31T15:54:40;5.70;;;3.35;;
3081;SDS011;1551;51.046;7.010;2023-07-31T15:57:29;5.30;;;2.80;;
3081;SDS011;1551;51.046;7.010;2023-07-31T16:00:18;4.57;;;3.00;;
3081;SDS011;1551;51.046;7.010;2023-07-31T16:03:07;4.55;;;2.90;;
3081;SDS011;1551;51.046;7.010;2023-07-31T16:05:56;4.25;;;2.90;;
3081;SDS011;1551;51.046;7.010;2023-07-31T16:08:45;4.22;;;2.40;;
3081;SDS011;1551;51.046;7.010;2023-07-31T16:11:34;5.30;;;3.20;;
3081;SDS011;1551;51.046;7.010;2023-07-31T16:14:23;5.60;;;3.20;;
3081;SDS011;1551;51.046;7.010;2023-07-31T16:17:12;3.85;;;2.42;;
3081;SDS011;1551;51.046;7.010;2023-07-31T16:20:01;5.88;;;3.10;;
3081;SDS011;1551;51.046;7.010;2023-07-31T16:22:49;4.40;;;2.60;;
3081;SDS011;1551;51.046;7.010;2023-07-31T16:25:38;6.43;;;3.20;;
3081;SDS011;1551;51.046;7.010;2023-07-31T16:28:27;5.00;;;2.90;;
3081;SDS011;1551;51.046;7.010;2023-07-31T16:31:16;5.50;;;3.40;;
3081;SDS011;1551;51.046;7.010;2023-07-31T16:34:05;6.47;;;3.50;;
3081;SDS011;1551;51.046;7.010;2023-07-31T16:36:54;6.03;;;3.13;;
3081;SDS011;1551;51.046;7.010;2023-07-31T16:39:44;6.57;;;3.30;;
3081;SDS011;1551;51.046;7.010;2023-07-31T16:42:35;5.37;;;3.20;;
3081;SDS011;1551;51.046;7.010;2023-07-31T16:45:24;4.95;;;2.50;;
3081;SDS011;1551;51.046;7.010;2023-07-31T16:48:13;5.32;;;2.50;;
3081;SDS011;1551;51.046;7.010;2023-07-31T16:51:02;6.05;;;3.17;;
3081;SDS011;1551;51.046;7.010;2023-07-31T16:53:53;5.57;;;2.90;;
3081;SDS011;1551;51.046;7.010;2023-07-31T16:56:42;4.10;;;2.20;;
3081;SDS011;1551;51.046;7.010;2023-07-31T16:59:31;4.65;;;2.13;;
3081;SDS011;1551;51.046;7.010;2023-07-31T17:02:20;4.50;;;1.95;;
3081;SDS011;1551;51.046;7.010;2023-07-31T17:05:09;4.63;;;1.90;;
3081;SDS011;1551;51.046;7.010;2023-07-31T17:07:58;4.82;;;1.90;;
3081;SDS011;1551;51.046;7.010;2023-07-31T17:10:47;3.25;;;1.70;;
3081;SDS011;1551;51.046;7.010;2023-07-31T17:13:37;4.57;;;2.53;;
3081;SDS011;1551;51.046;7.010;2023-07-31T17:16:25;5.37;;;2.10;;
3081;SDS011;1551;51.046;7.010;2023-07-31T17:19:17;6.10;;;2.28;;
3081;SDS011;1551;51.046;7.010;2023-07-31T17:22:06;3.83;;;2.10;;
3081;SDS011;1551;51.046;7.010;2023-07-31T17:24:55;3.50;;;1.90;;
3081;SDS011;1551;51.046;7.010;2023-07-31T17:27:44;4.18;;;2.25;;
3081;SDS011;1551;51.046;7.010;2023-07-31T17:30:33;3.92;;;2.30;;
3081;SDS011;1551;51.046;7.010;2023-07-31T17:33:22;4.57;;;2.30;;
3081;SDS011;1551;51.046;7.010;2023-07-31T17:36:11;7.13;;;3.08;;
3081;SDS011;1551;51.046;7.010;2023-07-31T17:39:01;5.10;;;2.50;;
3081;SDS011;1551;51.046;7.010;2023-07-31T17:41:49;4.35;;;2.38;;
3081;SDS011;1551;51.046;7.010;2023-07-31T17:44:39;4.05;;;2.47;;
3081;SDS011;1551;51.046;7.010;2023-07-31T17:47:27;6.30;;;3.00;;